• Join FlightAware (Why Join?)
  • Login
  • US Flag 
09:29AM EDT


 

Airport Tracker/Info


-or-


 

Live Flight TrackerFlight Track Log ✈ SWA868 ✈ 22-Jun-2013 ✈ KFNT - KBWI

Flight Track Log - Related Links

Times and Time Zones

All times are in EDT time to prevent confusion due to time zone crossing. See the SWA868 flight status page for this flight to view local times or setup timezone preferences in your user account.

Time Position Orientation Groundspeed Altitude Reporting Facility
EDT Latitude Longitude Course Direction KTS MPH feet Rate Location/Type
11:03AM 42.9808 -83.8497 144° Southeast 176 203 3,900  Level Cleveland Center
11:04AM 43.0369 -83.8556 356° North 171 197 6,300 3,180 Climbing Cleveland Center
11:06AM 43.0683 -83.6269 79° East 241 277 13,500 3,300 Climbing Cleveland Center
11:07AM 43.0631 -83.5044 93° East 277 319 16,300 1,920 Climbing Cleveland Center
11:08AM 42.4582 -83.2249 144° Southeast  Level FlightAware Approximate
11:08AM 43.0556 -83.3847 95° East 310 357 17,400  Level Cleveland Center
11:09AM 42.9725 -83.2903 140° Southeast 337 388 18,900 900 Climbing Cleveland Center
11:10AM 42.8739 -83.2208 153° Southeast 347 399 19,200 1,020 Climbing Cleveland Center
11:11AM 42.7756 -83.1517 153° Southeast 381 438 21,000 2,340 Climbing Cleveland Center
11:12AM 42.6769 -83.0797 152° Southeast 393 452 23,900 2,400 Climbing Cleveland Center
11:13AM 42.5764 -83.0081 152° Southeast 398 458 25,900 1,500 Climbing Cleveland Center
11:14AM 42.4736 -82.9336 152° Southeast 411 473 27,000 540 Climbing Cleveland Center
11:15AM 42.3647 -82.8567 152° Southeast 422 486 27,000  Level Cleveland Center
11:16AM 42.2578 -82.7856 154° Southeast 427 491 27,000  Level Cleveland Center
11:17AM 42.1531 -82.7061 151° Southeast 427 491 27,000  Level Cleveland Center
11:18AM 42.0439 -82.6242 151° Southeast 432 497 27,000  Level Cleveland Center
11:19AM 41.9561 -82.5125 137° Southeast 432 497 27,000  Level Cleveland Center
11:20AM 41.8683 -82.4011 137° Southeast 432 497 27,000  Level Cleveland Center
11:21AM 41.7783 -82.2956 139° Southeast 432 497 27,000  Level Cleveland Center
11:22AM 41.6903 -82.1875 137° Southeast 432 497 27,000  Level Cleveland Center
11:23AM 41.6042 -82.0828 138° Southeast 426 490 27,000  Level Cleveland Center
11:24AM 41.5178 -81.9781 138° Southeast 426 490 27,000  Level Cleveland Center
11:25AM 41.4317 -81.8736 138° Southeast 426 490 27,000  Level Cleveland Center
11:26AM 41.3392 -81.7531 136° Southeast 426 490 27,000  Level Cleveland Center
11:27AM 41.2503 -81.6519 139° Southeast 426 490 27,000  Level Cleveland Center
11:28AM 41.1636 -81.5486 138° Southeast 426 490 27,000  Level Cleveland Center
11:29AM 41.0811 -81.4536 139° Southeast 429 494 27,000  Level Cleveland Center
11:30AM 40.9964 -81.3533 138° Southeast 422 486 27,000  Level Cleveland Center
11:31AM 40.9094 -81.2481 138° Southeast 422 486 27,000  Level Cleveland Center
11:32AM 40.8225 -81.1483 139° Southeast 422 486 27,000  Level Cleveland Center
11:33AM 40.7272 -81.0325 137° Southeast 422 486 27,000  Level Cleveland Center
11:34AM 40.6358 -80.9250 138° Southeast 427 491 27,000  Level Cleveland Center
11:35AM 40.5400 -80.8153 139° Southeast 442 509 27,000  Level Cleveland Center
11:36AM 40.4464 -80.7058 138° Southeast 447 514 27,000  Level Cleveland Center
11:37AM 40.3528 -80.5994 139° Southeast 447 514 27,000  Level Cleveland Center
11:38AM 40.2611 -80.4933 139° Southeast 447 514 27,000  Level Cleveland Center
11:39AM 40.1817 -80.3711 130° Southeast 441 507 27,000  Level Cleveland Center
11:40AM 40.1250 -80.2247 117° Southeast 447 514 27,000  Level Cleveland Center
11:41AM 40.0703 -80.0947 119° Southeast 441 507 27,000  Level Cleveland Center
11:43AM 39.9683 -79.8364 117° Southeast 440 506 27,000  Level Washington Center
11:44AM 39.9086 -79.6894 118° Southeast 440 506 27,000  Level Washington Center
11:45AM 39.8531 -79.5483 117° Southeast 446 513 27,000  Level Washington Center
11:46AM 39.7931 -79.4047 118° Southeast 451 519 27,000 -240 Level Washington Center
11:47AM 39.7350 -79.2614 118° Southeast 451 519 26,600 -840 Descending Washington Center
11:48AM 39.6744 -79.1208 119° Southeast 451 519 25,400 -840 Descending Washington Center
11:49AM 39.6394 -78.9681 107° East 444 511 25,000 -240 Descending Washington Center
11:50AM 39.6036 -78.8236 108° East 452 520 25,000 -180 Level Washington Center
11:51AM 39.5703 -78.6714 106° East 452 520 24,700 -1,380 Descending Washington Center
11:52AM 39.5383 -78.5247 106° East 433 498 22,300 -2,640 Descending Washington Center
11:53AM 39.5064 -78.3861 107° East 418 481 19,400 -2,220 Descending Washington Center
11:54AM 39.4722 -78.2369 106° East 397 457 17,900 -2,220 Descending Washington Center
11:55AM 39.4494 -78.1314 106° East 379 436 15,000 -1,440 Descending Washington Center
11:56AM 39.4356 -77.9964 98° East 368 423 15,000 -300 Level Washington Center
11:57AM 39.4381 -77.8569 89° East 368 423 14,500 -840 Descending Washington Center
11:58AM 39.4386 -77.7253 90° East 373 429 13,400 -1,140 Descending Washington Center
11:59AM 39.4408 -77.5964 89° East 366 421 12,300 -1,080 Descending Washington Center
12:00PM 39.4428 -77.4728 89° East 347 399 11,300 -660 Descending Washington Center
12:01PM 39.4447 -77.3464 89° East 334 384 11,000 -180 Descending Washington Center
12:02PM 39.4608 -77.2311 80° East 328 377 11,000 -420 Level Washington Center
12:03PM 39.4833 -77.1000 77° East 314 361 10,100 -900 Descending Potomac TRACON
12:04PM 39.5000 -77.0000 78° East 297 342 9,100 -1,140 Descending Potomac TRACON
12:05PM 39.5000 -76.8833 90° East 293 337 8,000 -1,320 Descending Potomac TRACON
12:06PM 39.4667 -76.8000 117° Southeast 285 328 6,500 -1,500 Descending Potomac TRACON
12:07PM 39.4500 -76.7000 102° East 280 322 5,000 -900 Descending Potomac TRACON
12:08PM 39.4000 -76.6167 128° Southeast 279 321 4,800 -600 Descending Potomac TRACON
12:09PM 39.3500 -76.5500 134° Southeast 278 320 3,800 -900 Descending Potomac TRACON
12:10PM 39.2833 -76.5000 150° Southeast 258 297 3,000 -840 Descending Potomac TRACON
12:11PM 39.2167 -76.5167 191° South 255 293 2,200 -540 Descending Potomac TRACON
12:12PM 39.1500 -76.5333 191° South 238 274 2,000 -180 Descending Potomac TRACON
12:13PM 39.1167 -76.5833 229° Southwest 195 224 1,900 -600 Descending Potomac TRACON
12:14PM 39.1333 -76.6333 293° West 145 167 900 -1,020 Descending Potomac TRACON
12:16PM 39.1754 -76.6683 17° North  Level Estimated
12:23PM 39.1754 -76.6683 206° Southwest  Level Estimated
12:24PM 39.1754 -76.6683 206° Southwest  Level Estimated